ADDS METAR Data INFO
IDs: Format: Raw Decoded Include TAF

Data at: 0347 UTC 17 Oct 2017

KXBP 170335Z AUTO 00000KT 10SM CLR 08/06 A3031 RMK AO2 T00800055
KXBP 170315Z AUTO 00000KT 10SM CLR 09/06 A3032 RMK AO2 T00870055
KXBP 170255Z AUTO 00000KT 10SM CLR 09/06 A3031 RMK AO2 T00920059
KXBP 170235Z AUTO 00000KT 10SM CLR 10/06 A3031 RMK AO2 T00980060
KXBP 170215Z AUTO 00000KT 10SM CLR 10/07 A3031 RMK AO2 T01010066
KXBP 170155Z AUTO 00000KT 10SM CLR 10/07 A3031 RMK AO2 T00980068
KXBP 170135Z AUTO 00000KT 10SM CLR 11/07 A3031 RMK AO2 T01080065
KXBP 170115Z AUTO 00000KT 10SM CLR 10/07 A3031 RMK AO2 T01040072
KXBP 170055Z AUTO 00000KT 10SM CLR 12/07 A3030 RMK AO2 T01170071
KXBP 170035Z AUTO 00000KT 10SM CLR 13/08 A3030 RMK AO2 T01290077
KXBP 170015Z AUTO 00000KT 10SM CLR 14/07 A3030 RMK AO2 T01430069
KXBP 162355Z AUTO 00000KT 10SM CLR 18/06 A3030 RMK AO2 T01770062 10220 20177
KXBP 162335Z AUTO 00000KT 10SM CLR 20/03 A3030 RMK AO2 T02040033
KXBP 162315Z AUTO 00000KT 10SM CLR 21/03 A3030 RMK AO2 T02080027
KXBP 162255Z AUTO 00000KT 10SM CLR 21/03 A3030 RMK AO2 T02130025
KXBP 162235Z AUTO 00000KT 10SM CLR 21/02 A3030 RMK AO2 T02130022
KXBP 162215Z AUTO 25004KT 10SM CLR 22/02 A3030 RMK AO2 T02160022
KXBP 162155Z AUTO 00000KT 10SM CLR 22/01 A3030 RMK AO2 T02160014
KXBP 162135Z AUTO 00000KT 10SM CLR 22/01 A3031 RMK AO2 T02200014
KXBP 162115Z AUTO 01006KT 10SM CLR 22/02 A3031 RMK AO2 T02160015
KXBP 162055Z AUTO 31005KT 10SM CLR 21/01 A3032 RMK AO2 T02130014
KXBP 162035Z AUTO 36005KT 10SM CLR 22/01 A3033 RMK AO2 T02180014
KXBP 162015Z AUTO 29004KT 10SM CLR 21/01 A3034 RMK AO2 T02120011
KXBP 161955Z AUTO 32005KT 10SM CLR 21/02 A3035 RMK AO2 T02080016
KXBP 161935Z AUTO 36003KT 10SM CLR 21/02 A3036 RMK AO2 T02140019
KXBP 161915Z AUTO 13003KT 10SM CLR 21/01 A3037 RMK AO2 T02090009
KXBP 161855Z AUTO 04003KT 10SM CLR 20/01 A3038 RMK AO2 T02020007
KXBP 161835Z AUTO 08006KT 10SM CLR 21/01 A3040 RMK AO2 T02050012
KXBP 161815Z AUTO 04006KT 10SM CLR 20/01 A3042 RMK AO2 T02020013
KXBP 161755Z AUTO 05005KT 10SM CLR 20/01 A3043 RMK AO2 T01970014 10197 20043
KXBP 161735Z AUTO 04008KT 10SM CLR 19/02 A3044 RMK AO2 T01890015
KXBP 161715Z AUTO 06004KT 10SM CLR 19/02 A3044 RMK AO2 T01900019
KXBP 161655Z AUTO 07009KT 10SM CLR 18/02 A3045 RMK AO2 T01840023
KXBP 161635Z AUTO 06008G14KT 10SM CLR 18/02 A3046 RMK AO2 T01780023
KXBP 161615Z AUTO 07006KT 10SM CLR 17/04 A3046 RMK AO2 T01710038
KXBP 161555Z AUTO 06007KT 10SM CLR 17/03 A3046 RMK AO2 T01690031
KXBP 161535Z AUTO 06006KT 10SM CLR 16/03 A3046 RMK AO2 T01640028
KXBP 161515Z AUTO 05007KT 10SM CLR 16/03 A3047 RMK AO2 T01570029
KXBP 161455Z AUTO 07004KT 10SM CLR 15/04 A3047 RMK AO2 T01490044
KXBP 161435Z AUTO 00000KT 10SM CLR 13/04 A3047 RMK AO2 T01340041
KXBP 161415Z AUTO 00000KT 10SM CLR 13/04 A3046 RMK AO2 T01260041
KXBP 161355Z AUTO 00000KT 10SM CLR 12/04 A3046 RMK AO2 T01160039
KXBP 161335Z AUTO 00000KT 10SM CLR 09/06 A3045 RMK AO2 T00880055
KXBP 161315Z AUTO 00000KT 10SM CLR 06/05 A3045 RMK AO2 T00610050
KXBP 161255Z AUTO 00000KT 10SM CLR 04/04 A3045 RMK AO2 T00430035
KXBP 161235Z AUTO 00000KT 10SM CLR 05/04 A3044 RMK AO2 T00470036
KXBP 161215Z AUTO 00000KT 10SM CLR 05/03 A3044 RMK AO2 T00500034
KXBP 161155Z AUTO 00000KT 10SM CLR 08/03 A3044 RMK AO2 T00750033 10123 20059
KXBP 161135Z AUTO 00000KT 10SM CLR 08/03 A3044 RMK AO2 T00750034
KXBP 161115Z AUTO 00000KT 10SM CLR 06/04 A3043 RMK AO2 T00640038
KXBP 161055Z AUTO 00000KT 10SM CLR 08/03 A3042 RMK AO2 T00840034
KXBP 161035Z AUTO 02003KT 10SM CLR 09/04 A3042 RMK AO2 T00890035
KXBP 161015Z AUTO 00000KT 10SM CLR 10/04 A3042 RMK AO2 T00980035
KXBP 160955Z AUTO 01004KT 10SM CLR 10/04 A3042 RMK AO2 T01010035
KXBP 160935Z AUTO 02003KT 10SM CLR 10/04 A3042 RMK AO2 T00980036
KXBP 160915Z AUTO 03004KT 10SM CLR 10/04 A3041 RMK AO2 T01000037
KXBP 160855Z AUTO 03003KT 10SM CLR 10/04 A3041 RMK AO2 T01000037
KXBP 160835Z AUTO 03003KT 10SM CLR 10/04 A3042 RMK AO2 T00990038
KXBP 160815Z AUTO 03003KT 10SM CLR 10/04 A3042 RMK AO2 T01030038
KXBP 160755Z AUTO 03003KT 10SM CLR 10/04 A3042 RMK AO2 T01030039
KXBP 160735Z AUTO 03003KT 10SM CLR 11/04 A3042 RMK AO2 T01050040
KXBP 160715Z AUTO 03003KT 10SM CLR 11/04 A3042 RMK AO2 T01100040
KXBP 160655Z AUTO 02004KT 10SM CLR 11/04 A3042 RMK AO2 T01110040
KXBP 160635Z AUTO 02003KT 10SM CLR 11/04 A3042 RMK AO2 T01120040
KXBP 160620Z AUTO 02004KT 10SM CLR 12/04 A3042 RMK AO2 T01170040
KXBP 160555Z AUTO 01007KT 10SM CLR 12/04 A3042 RMK AO2 T01240040 10182 20123 402570123
KXBP 160535Z AUTO 01006KT 10SM CLR 13/04 A3041 RMK AO2 T01250040
KXBP 160515Z AUTO 01006KT 10SM CLR 13/04 A3042 RMK AO2 T01280040
KXBP 160455Z AUTO 01005KT 10SM CLR 13/04 A3042 RMK AO2 T01330040
KXBP 160435Z AUTO 36004KT 10SM CLR 14/04 A3042 RMK AO2 T01390040
KXBP 160415Z AUTO 36005KT 10SM CLR 14/05 A3042 RMK AO2 T01400045
KXBP 160355Z AUTO 36006KT 10SM CLR 14/05 A3041 RMK AO2 T01430047
KXBP 160335Z AUTO 35006KT 10SM CLR 15/05 A3040 RMK AO2 T01450050
KXBP 160315Z AUTO 36004KT 10SM CLR 15/05 A3040 RMK AO2 T01470052
KXBP 160255Z AUTO 36006KT 10SM CLR 15/05 A3040 RMK AO2 T01520054
KXBP 160235Z AUTO 36006KT 10SM CLR 16/06 A3039 RMK AO2 T01550055
KXBP 160215Z AUTO 35005KT 10SM CLR 16/06 A3039 RMK AO2 T01570055
KXBP 160155Z AUTO 36006KT 10SM CLR 16/06 A3038 RMK AO2 T01600057
KXBP 160135Z AUTO 36005KT 10SM CLR 15/06 A3037 RMK AO2 T01530056
KXBP 160115Z AUTO 01004KT 10SM CLR 16/05 A3037 RMK AO2 T01640045
KXBP 160055Z AUTO 36005KT 10SM CLR 17/04 A3036 RMK AO2 T01700035
KXBP 160035Z AUTO 36005KT 10SM CLR 17/03 A3035 RMK AO2 T01720031
KXBP 160015Z AUTO 36004KT 10SM CLR 18/03 A3034 RMK AO2 T01760029
KXBP 152355Z AUTO 36007KT 10SM CLR 18/03 A3034 RMK AO2 T01820025 10222 20182
KXBP 152335Z AUTO 36011G18KT 10SM CLR 19/02 A3033 RMK AO2 T01930021
KXBP 152315Z AUTO 36009G19KT 10SM CLR 20/03 A3032 RMK AO2 T01990027
KXBP 152255Z AUTO 01010G18KT 10SM CLR 21/03 A3032 RMK AO2 T02080027
KXBP 152235Z AUTO 35011G16KT 10SM CLR 20/03 A3032 RMK AO2 T02020027
KXBP 152215Z AUTO 01014G20KT 10SM CLR 21/03 A3032 RMK AO2 T02110025
KXBP 152155Z AUTO 36010G18KT 10SM CLR 22/03 A3032 RMK AO2 T02180030
KXBP 152135Z AUTO 35010G16KT 10SM CLR 22/03 A3032 RMK AO2 T02180032
KXBP 152115Z AUTO 35010G19KT 10SM CLR 22/04 A3032 RMK AO2 T02210036
KXBP 152055Z AUTO 01012G18KT 10SM CLR 21/04 A3032 RMK AO2 T02060036
KXBP 152035Z AUTO 01014G20KT 10SM CLR 22/04 A3033 RMK AO2 LTG DSNT S T02150044
KXBP 152015Z AUTO 36013G18KT 10SM CLR 22/05 A3033 RMK AO2 T02170052
KXBP 151955Z AUTO 36011G18KT 10SM CLR 22/04 A3033 RMK AO2 T02170044
KXBP 151935Z AUTO 35013G19KT 10SM CLR 21/05 A3033 RMK AO2 LTG DSNT SW T02090051
KXBP 151915Z AUTO 35011G18KT 10SM CLR 20/05 A3035 RMK AO2 T02040052
KXBP 151855Z AUTO 35009G14KT 10SM CLR 19/06 A3035 RMK AO2 T01910062
KXBP 151835Z AUTO 35008G15KT 10SM CLR 19/06 A3036 RMK AO2 LTG DSNT S T01860060
KXBP 151815Z AUTO 35011KT 10SM CLR 19/06 A3036 RMK AO2 T01850063
KXBP 151755Z AUTO 36008KT 330V040 10SM CLR 18/07 A3037 RMK AO2 T01810066 10181 20130
KXBP 151735Z AUTO 01010G18KT 10SM CLR 17/06 A3037 RMK AO2 T01730064
KXBP 151715Z AUTO 35010G15KT 10SM CLR 17/07 A3037 RMK AO2 T01720069
KXBP 151655Z AUTO 02011G16KT 10SM CLR 17/07 A3036 RMK AO2 T01720070
KXBP 151635Z AUTO 36011G17KT 10SM CLR 17/07 A3036 RMK AO2 T01700072
KXBP 151615Z AUTO 36010G15KT 10SM CLR 16/08 A3037 RMK AO2 T01590079
KXBP 151555Z AUTO 36013G19KT 10SM CLR 17/08 A3036 RMK AO2 T01650082